Time;durP1;ratioP1;P1;durP2;ratioP2;P2;SDS_P1;SDS_P2;PMS_P1;PMS_P2;Temp;Humidity;BMP_temperature;BMP_pressure;BME280_temperature;BME280_humidity;BME280_pressure;Samples;Min_cycle;Max_cycle;Signal;HPM_P1;HPM_P2
2023/04/25 00:01:05;;;;;;;;;;;;;;;;;;6161310;23;19923;-86
2023/04/25 00:03:31;;;;;;;;;;;;;;;;;;6135069;23;19920;-87
2023/04/25 00:05:57;;;;;;;;;;;;;;;;;;6136452;23;19920;-88
2023/04/25 00:08:23;;;;;;;;;;;;;;;;;;6136001;23;19916;-88
2023/04/25 00:10:49;;;;;;;;;;;;;;;;;;6161065;23;19960;-88
2023/04/25 00:13:17;;;;;;;;;;;;;;;;;;6135700;23;19995;-86
2023/04/25 00:15:43;;;;;;;;;;;;;;;;;;6136439;23;19995;-88
2023/04/25 00:18:09;;;;;;;;;;;;;;;;;;6136183;23;20224;-88
2023/04/25 00:20:35;;;;;;;;;;;;;;;;;;6136108;23;19927;-87
2023/04/25 00:23:01;;;;;;;;;;;;;;;;;;6136291;23;20026;-87
2023/04/25 00:25:27;;;;;;;;;;;;;;;;;;6135277;23;19916;-89
2023/04/25 00:27:53;;;;;;;;;;;;;;;;;;6136148;23;19974;-88
2023/04/25 00:30:19;;;;;;;;;;;;;;;;;;6159994;23;19916;-89
2023/04/25 00:32:45;;;;;;;;;;;;;;;;;;6136271;23;19923;-88
2023/04/25 00:35:11;;;;;;;;;;;;;;;;;;6135748;23;19974;-89
2023/04/25 00:37:38;;;;;;;;;;;;;;;;;;6160231;23;19920;-89
2023/04/25 00:40:03;;;;;;;;;;;;;;;;;;6135751;23;19916;-89
2023/04/25 00:42:29;;;;;;;;;;;;;;;;;;6159898;23;19916;-89
2023/04/25 00:44:55;;;;;;;;;;;;;;;;;;6135827;23;19916;-88
2023/04/25 00:47:21;;;;;;;;;;;;;;;;;;6135906;23;20483;-88
2023/04/25 00:49:47;;;;;;;;;;;;;;;;;;6135585;23;19971;-88
2023/04/25 00:52:13;;;;;;;;;;;;;;;;;;6159709;23;19955;-88
2023/04/25 00:54:39;;;;;;;;;;;;;;;;;;6160322;23;20353;-88
2023/04/25 00:57:05;;;;;;;;;;;;;;;;;;6137360;23;19916;-88
2023/04/25 00:59:31;;;;;;;;;;;;;;;;;;6137197;23;20293;-89
2023/04/25 01:01:57;;;;;;;;;;;;;;;;;;6137510;23;19916;-88
2023/04/25 01:04:23;;;;;;;;;;;;;;;;;;6162172;23;19916;-88
2023/04/25 01:06:49;;;;;;;;;;;;;;;;;;6137535;23;19983;-88
2023/04/25 01:09:15;;;;;;;;;;;;;;;;;;6137443;23;19920;-88
2023/04/25 01:11:40;;;;;;;;;;;;;;;;;;6137517;23;19970;-88
2023/04/25 01:14:06;;;;;;;;;;;;;;;;;;6137356;23;19971;-87
2023/04/25 01:16:33;;;;;;;;;;;;;;;;;;6138217;23;20278;-88
2023/04/25 01:18:58;;;;;;;;;;;;;;;;;;6138220;23;20346;-88
2023/04/25 01:21:27;;;;;;;;;;;;;;;;;;6137331;23;19975;-88
2023/04/25 01:23:52;;;;;;;;;;;;;;;;;;6137253;23;20266;-87
2023/04/25 01:26:21;;;;;;;;;;;;;;;;;;6137635;23;19916;-88
2023/04/25 01:28:46;;;;;;;;;;;;;;;;;;6137704;23;19967;-88
2023/04/25 01:31:12;;;;;;;;;;;;;;;;;;6137283;23;20326;-87
2023/04/25 01:33:38;;;;;;;;;;;;;;;;;;6136951;23;19916;-87
2023/04/25 01:36:04;;;;;;;;;;;;;;;;;;6136780;23;19928;-89
2023/04/25 01:38:30;;;;;;;;;;;;;;;;;;6137630;23;19995;-87
2023/04/25 01:40:56;;;;;;;;;;;;;;;;;;6137113;23;20232;-89
2023/04/25 01:43:22;;;;;;;;;;;;;;;;;;6137143;23;20350;-89
2023/04/25 01:45:48;;;;;;;;;;;;;;;;;;6137615;23;19916;-88
2023/04/25 01:48:14;;;;;;;;;;;;;;;;;;6161157;23;19916;-88
2023/04/25 01:50:40;;;;;;;;;;;;;;;;;;6136594;23;19917;-88
2023/04/25 01:53:06;;;;;;;;;;;;;;;;;;6136634;23;20291;-87
2023/04/25 01:55:32;;;;;;;;;;;;;;;;;;6136551;23;19931;-88
2023/04/25 01:57:59;;;;;;;;;;;;;;;;;;6161633;23;20255;-89
2023/04/25 02:00:25;;;;;;;;;;;;;;;;;;6136333;23;19995;-90
2023/04/25 02:02:53;;;;;;;;;;;;;;;;;;6137106;23;19947;-88
2023/04/25 02:05:19;;;;;;;;;;;;;;;;;;6137006;23;19920;-89
2023/04/25 02:07:44;;;;;;;;;;;;;;;;;;6137397;23;20331;-89
2023/04/25 02:10:10;;;;;;;;;;;;;;;;;;6160785;23;19917;-88
2023/04/25 02:12:36;;;;;;;;;;;;;;;;;;6136393;23;20251;-88
2023/04/25 02:15:02;;;;;;;;;;;;;;;;;;6136512;23;19920;-89
2023/04/25 02:17:28;;;;;;;;;;;;;;;;;;6160762;23;19939;-88
2023/04/25 02:19:54;;;;;;;;;;;;;;;;;;6136548;23;19921;-88
2023/04/25 02:22:20;;;;;;;;;;;;;;;;;;6160975;23;19916;-88
2023/04/25 02:24:46;;;;;;;;;;;;;;;;;;6136713;23;19991;-88
2023/04/25 02:27:12;;;;;;;;;;;;;;;;;;6161151;23;20343;-88
2023/04/25 02:29:37;;;;;;;;;;;;;;;;;;6135813;23;20019;-88
2023/04/25 02:32:03;;;;;;;;;;;;;;;;;;6136553;23;19951;-87
2023/04/25 02:34:29;;;;;;;;;;;;;;;;;;6137032;23;19920;-87
2023/04/25 02:36:56;;;;;;;;;;;;;;;;;;6137493;23;19948;-88
2023/04/25 02:39:22;;;;;;;;;;;;;;;;;;6137182;23;19916;-88
2023/04/25 02:41:48;;;;;;;;;;;;;;;;;;6136364;23;20361;-88
2023/04/25 02:44:13;;;;;;;;;;;;;;;;;;6136520;23;19916;-88
2023/04/25 02:46:39;;;;;;;;;;;;;;;;;;6137657;23;19923;-88
2023/04/25 02:49:05;;;;;;;;;;;;;;;;;;6137325;23;19916;-88
2023/04/25 02:51:32;;;;;;;;;;;;;;;;;;6137791;23;19923;-88
2023/04/25 02:53:58;;;;;;;;;;;;;;;;;;6138051;23;20236;-88
2023/04/25 02:56:25;;;;;;;;;;;;;;;;;;6136555;23;19926;-88
2023/04/25 02:58:51;;;;;;;;;;;;;;;;;;6136491;23;19920;-88
2023/04/25 03:01:17;;;;;;;;;;;;;;;;;;6160980;23;19916;-88
2023/04/25 03:03:43;;;;;;;;;;;;;;;;;;6135503;23;19924;-89
2023/04/25 03:06:09;;;;;;;;;;;;;;;;;;6135855;23;19927;-88
2023/04/25 03:08:35;;;;;;;;;;;;;;;;;;6136221;23;19920;-88
2023/04/25 03:11:01;;;;;;;;;;;;;;;;;;6135804;23;19943;-88
2023/04/25 03:13:29;;;;;;;;;;;;;;;;;;6135958;23;19967;-88
2023/04/25 03:15:55;;;;;;;;;;;;;;;;;;6136182;23;19931;-88
2023/04/25 03:18:21;;;;;;;;;;;;;;;;;;6136308;23;19987;-88
2023/04/25 03:20:46;;;;;;;;;;;;;;;;;;6136360;23;20264;-88
2023/04/25 03:23:12;;;;;;;;;;;;;;;;;;6161681;23;19916;-88
2023/04/25 03:25:38;;;;;;;;;;;;;;;;;;6161484;23;19963;-88
2023/04/25 03:28:04;;;;;;;;;;;;;;;;;;6137324;23;19966;-88
2023/04/25 03:30:30;;;;;;;;;;;;;;;;;;6137132;23;19923;-87
2023/04/25 03:32:56;;;;;;;;;;;;;;;;;;6136701;23;19951;-88
2023/04/25 03:35:23;;;;;;;;;;;;;;;;;;6137050;23;20353;-87
2023/04/25 03:37:49;;;;;;;;;;;;;;;;;;6137286;23;20401;-88
2023/04/25 03:40:15;;;;;;;;;;;;;;;;;;6137187;23;19916;-88
2023/04/25 03:42:41;;;;;;;;;;;;;;;;;;6136770;23;19920;-88
2023/04/25 03:45:07;;;;;;;;;;;;;;;;;;6136827;23;19916;-88
2023/04/25 03:47:33;;;;;;;;;;;;;;;;;;6136898;23;19916;-88
2023/04/25 03:50:00;;;;;;;;;;;;;;;;;;6136738;23;19916;-88
2023/04/25 03:52:26;;;;;;;;;;;;;;;;;;6137929;23;20366;-88
2023/04/25 03:54:52;;;;;;;;;;;;;;;;;;6137176;23;19920;-88
2023/04/25 03:57:18;;;;;;;;;;;;;;;;;;6137123;23;19916;-88
2023/04/25 03:59:44;;;;;;;;;;;;;;;;;;6136370;23;19931;-89
2023/04/25 04:02:11;;;;;;;;;;;;;;;;;;6136263;23;19939;-89
2023/04/25 04:04:37;;;;;;;;;;;;;;;;;;6136561;23;19923;-89
2023/04/25 04:07:03;;;;;;;;;;;;;;;;;;6138224;23;20254;-89
2023/04/25 04:09:29;;;;;;;;;;;;;;;;;;6136655;23;19939;-89
2023/04/25 04:11:54;;;;;;;;;;;;;;;;;;6161754;23;19956;-88
2023/04/25 04:14:21;;;;;;;;;;;;;;;;;;6136248;23;19952;-88
2023/04/25 04:16:46;;;;;;;;;;;;;;;;;;6161154;23;19927;-88
2023/04/25 04:19:12;;;;;;;;;;;;;;;;;;6161275;23;19916;-89
2023/04/25 04:21:38;;;;;;;;;;;;;;;;;;6136773;23;19944;-89
2023/04/25 04:24:05;;;;;;;;;;;;;;;;;;6135619;23;20402;-89
2023/04/25 04:26:31;;;;;;;;;;;;;;;;;;6136447;23;19922;-88
2023/04/25 04:28:59;;;;;;;;;;;;;;;;;;6136884;23;19923;-88
2023/04/25 04:31:25;;;;;;;;;;;;;;;;;;6137289;23;19936;-87
2023/04/25 04:33:51;;;;;;;;;;;;;;;;;;6136815;23;19920;-88
2023/04/25 04:36:19;;;;;;;;;;;;;;;;;;6160278;23;19935;-88
2023/04/25 04:38:45;;;;;;;;;;;;;;;;;;6159803;23;19916;-89
2023/04/25 04:41:11;;;;;;;;;;;;;;;;;;6134985;23;19926;-89
2023/04/25 04:43:39;;;;;;;;;;;;;;;;;;6135012;23;20443;-89
2023/04/25 04:46:05;;;;;;;;;;;;;;;;;;6159468;23;19927;-89
2023/04/25 04:48:32;;;;;;;;;;;;;;;;;;6135224;23;19916;-88
2023/04/25 04:50:58;;;;;;;;;;;;;;;;;;6134814;23;20381;-88
2023/04/25 04:53:24;;;;;;;;;;;;;;;;;;6159227;23;20359;-88
2023/04/25 04:55:50;;;;;;;;;;;;;;;;;;6159830;23;19948;-89
2023/04/25 04:58:16;;;;;;;;;;;;;;;;;;6159131;23;20303;-88
2023/04/25 05:00:42;;;;;;;;;;;;;;;;;;6135322;23;20253;-89
2023/04/25 05:03:11;;;;;;;;;;;;;;;;;;6135147;23;20246;-88
2023/04/25 05:05:39;;;;;;;;;;;;;;;;;;6136023;23;19940;-89
2023/04/25 05:08:05;;;;;;;;;;;;;;;;;;6135754;23;19940;-89
2023/04/25 05:10:31;;;;;;;;;;;;;;;;;;6135270;23;19927;-89
2023/04/25 05:12:57;;;;;;;;;;;;;;;;;;6134817;23;19987;-89
2023/04/25 05:15:23;;;;;;;;;;;;;;;;;;6159426;23;20044;-88
2023/04/25 05:17:49;;;;;;;;;;;;;;;;;;6159636;23;20342;-87
2023/04/25 05:20:15;;;;;;;;;;;;;;;;;;6135063;23;19963;-88
2023/04/25 05:22:41;;;;;;;;;;;;;;;;;;6160142;23;19916;-86
2023/04/25 05:25:07;;;;;;;;;;;;;;;;;;6134607;23;20012;-88
2023/04/25 05:27:33;;;;;;;;;;;;;;;;;;6135110;23;20331;-88
2023/04/25 05:29:59;;;;;;;;;;;;;;;;;;6159201;23;19991;-87
2023/04/25 05:32:25;;;;;;;;;;;;;;;;;;6159927;23;19928;-87
2023/04/25 05:34:51;;;;;;;;;;;;;;;;;;6135050;23;19917;-88
2023/04/25 05:37:17;;;;;;;;;;;;;;;;;;6159526;23;19966;-88
2023/04/25 05:39:43;;;;;;;;;;;;;;;;;;6134825;23;19916;-88
2023/04/25 05:42:09;;;;;;;;;;;;;;;;;;6136940;23;20358;-87
2023/04/25 05:44:35;;;;;;;;;;;;;;;;;;6162467;23;19920;-88
2023/04/25 05:47:00;;;;;;;;;;;;;;;;;;6162022;23;19916;-86
2023/04/25 05:49:26;;;;;;;;;;;;;;;;;;6136883;23;19917;-89
2023/04/25 05:51:52;;;;;;;;;;;;;;;;;;6137648;23;19962;-87
2023/04/25 05:54:18;;;;;;;;;;;;;;;;;;6136794;23;20401;-88
2023/04/25 05:56:44;;;;;;;;;;;;;;;;;;6162130;23;19923;-88
2023/04/25 05:59:10;;;;;;;;;;;;;;;;;;6138470;23;20258;-88
2023/04/25 06:01:36;;;;;;;;;;;;;;;;;;6162735;23;19916;-88
2023/04/25 06:04:02;;;;;;;;;;;;;;;;;;6137647;23;20228;-88
2023/04/25 06:06:28;;;;;;;;;;;;;;;;;;6137721;23;19967;-88
2023/04/25 06:08:55;;;;;;;;;;;;;;;;;;6136848;23;19939;-87
2023/04/25 06:11:21;;;;;;;;;;;;;;;;;;6136744;23;19952;-87
2023/04/25 06:13:47;;;;;;;;;;;;;;;;;;6160925;23;20362;-88
2023/04/25 06:16:12;;;;;;;;;;;;;;;;;;6136570;23;19916;-90
2023/04/25 06:18:38;;;;;;;;;;;;;;;;;;6136525;23;19916;-89
2023/04/25 06:21:04;;;;;;;;;;;;;;;;;;6137451;23;19987;-88
2023/04/25 06:23:30;;;;;;;;;;;;;;;;;;6162047;23;19955;-87
2023/04/25 06:25:56;;;;;;;;;;;;;;;;;;6137870;23;19940;-88
2023/04/25 06:28:23;;;;;;;;;;;;;;;;;;6136280;23;19917;-88
2023/04/25 06:30:49;;;;;;;;;;;;;;;;;;6136946;23;20251;-88
2023/04/25 06:33:15;;;;;;;;;;;;;;;;;;6136150;23;19924;-88
2023/04/25 06:35:40;;;;;;;;;;;;;;;;;;6136134;23;20275;-88
2023/04/25 06:38:06;;;;;;;;;;;;;;;;;;6136143;23;19922;-88
2023/04/25 06:40:32;;;;;;;;;;;;;;;;;;6136058;23;19923;-88
2023/04/25 06:42:58;;;;;;;;;;;;;;;;;;6136678;23;19923;-87
2023/04/25 06:45:24;;;;;;;;;;;;;;;;;;6138529;23;19920;-90
2023/04/25 06:47:50;;;;;;;;;;;;;;;;;;6161514;23;19916;-87
2023/04/25 06:50:16;;;;;;;;;;;;;;;;;;6160543;23;19916;-87
2023/04/25 06:52:42;;;;;;;;;;;;;;;;;;6134689;23;20341;-86
2023/04/25 06:55:08;;;;;;;;;;;;;;;;;;6135795;23;19922;-90
2023/04/25 06:57:34;;;;;;;;;;;;;;;;;;6163037;23;19940;-89
2023/04/25 07:00:00;;;;;;;;;;;;;;;;;;6164209;23;19966;-90
2023/04/25 07:02:26;;;;;;;;;;;;;;;;;;6141821;23;20289;-89
2023/04/25 07:04:52;;;;;;;;;;;;;;;;;;6167276;23;19946;-91
2023/04/25 07:07:18;;;;;;;;;;;;;;;;;;6143603;23;19916;-92
2023/04/25 07:09:44;;;;;;;;;;;;;;;;;;6142011;23;19916;-91
2023/04/25 07:12:09;;;;;;;;;;;;;;;;;;6168203;23;19960;-93
2023/04/25 07:14:35;;;;;;;;;;;;;;;;;;6164050;23;19926;-89
2023/04/25 07:17:06;;;;;;;;;;;;;;;;;;6139126;23;19987;-92
2023/04/25 07:19:32;;;;;;;;;;;;;;;;;;6142810;23;20355;-92
2023/04/25 07:21:58;;;;;;;;;;;;;;;;;;6142018;23;19924;-93
2023/04/25 07:24:24;;;;;;;;;;;;;;;;;;6144262;23;19920;-96
2023/04/25 07:26:50;;;;;;;;;;;;;;;;;;6144838;23;19926;-96
2023/04/25 07:29:16;;;;;;;;;;;;;;;;;;6141373;23;19957;-94
2023/04/25 07:31:42;;;;;;;;;;;;;;;;;;6144338;23;20438;-95
2023/04/25 07:34:08;;;;;;;;;;;;;;;;;;6152237;23;19967;-95
2023/04/25 07:36:34;;;;;;;;;;;;;;;;;;6152400;23;19951;-94
2023/04/25 07:39:00;;;;;;;;;;;;;;;;;;6148490;23;19955;-91
2023/04/25 07:41:26;;;;;;;;;;;;;;;;;;6150947;23;20002;-93
2023/04/25 07:43:52;;;;;;;;;;;;;;;;;;6148862;23;19959;-94
2023/04/25 07:46:18;;;;;;;;;;;;;;;;;;6166170;23;19939;-92
2023/04/25 07:48:44;;;;;;;;;;;;;;;;;;6143772;23;19955;-92
2023/04/25 07:51:10;;;;;;;;;;;;;;;;;;6144929;23;20255;-91
2023/04/25 08:01:24;;;;;;;;;;;;;;;;;;6185902;23;19920;-92
2023/04/25 08:03:52;;;;;;;;;;;;;;;;;;6171200;23;19924;-95
2023/04/25 08:06:18;;;;;;;;;;;;;;;;;;6194760;23;19965;-94
2023/04/25 08:08:44;;;;;;;;;;;;;;;;;;6175421;23;19916;-94
2023/04/25 08:11:10;;;;;;;;;;;;;;;;;;6177533;23;19924;-96
2023/04/25 08:13:42;;;;;;;;;;;;;;;;;;6182593;23;19920;-94
2023/04/25 08:16:12;;;;;;;;;;;;;;;;;;6206666;23;19935;-96
2023/04/25 08:18:47;;;;;;;;;;;;;;;;;;6208018;23;19904;-96
2023/04/25 08:21:13;;;;;;;;;;;;;;;;;;6179371;23;19960;-95
2023/04/25 08:23:43;;;;;;;;;;;;;;;;;;6203729;23;20224;-95
2023/04/25 08:26:09;;;;;;;;;;;;;;;;;;6199921;23;19947;-93
2023/04/25 08:28:35;;;;;;;;;;;;;;;;;;6172122;23;19940;-94
2023/04/25 08:31:02;;;;;;;;;;;;;;;;;;6173295;23;19952;-93
2023/04/25 08:33:28;;;;;;;;;;;;;;;;;;6172902;23;19924;-92
2023/04/25 08:35:54;;;;;;;;;;;;;;;;;;6170223;23;19917;-93
2023/04/25 08:38:21;;;;;;;;;;;;;;;;;;6175627;23;19916;-94
2023/04/25 08:43:23;;;;;;;;;;;;;;;;;;6201649;23;19920;-94
2023/04/25 08:45:54;;;;;;;;;;;;;;;;;;6177176;23;19916;-93
2023/04/25 08:48:20;;;;;;;;;;;;;;;;;;6169191;23;19912;-94
2023/04/25 08:50:46;;;;;;;;;;;;;;;;;;6152812;23;19920;-92
2023/04/25 08:53:18;;;;;;;;;;;;;;;;;;6179461;23;19948;-94
2023/04/25 08:55:44;;;;;;;;;;;;;;;;;;6154040;23;19923;-95
2023/04/25 09:14:07;;;;;;;;;;;;;;;;;;6220351;23;20335;-92
2023/04/25 09:16:36;;;;;;;;;;;;;;;;;;6203663;23;19920;-93
2023/04/25 09:19:05;;;;;;;;;;;;;;;;;;6180799;23;19986;-95
2023/04/25 09:21:34;;;;;;;;;;;;;;;;;;6208476;23;20339;-94
2023/04/25 09:24:00;;;;;;;;;;;;;;;;;;6180182;23;19968;-93
2023/04/25 09:26:26;;;;;;;;;;;;;;;;;;6181312;23;20015;-93
2023/04/25 09:28:52;;;;;;;;;;;;;;;;;;6205455;23;19915;-91
2023/04/25 09:31:18;;;;;;;;;;;;;;;;;;6178927;23;19936;-91
2023/04/25 09:33:45;;;;;;;;;;;;;;;;;;6180169;23;19919;-95
2023/04/25 09:36:11;;;;;;;;;;;;;;;;;;6183245;23;19923;-96
2023/04/25 09:38:37;;;;;;;;;;;;;;;;;;6180876;23;19917;-92
2023/04/25 09:41:03;;;;;;;;;;;;;;;;;;6185091;23;19927;-95
2023/04/25 09:43:29;;;;;;;;;;;;;;;;;;6186133;23;19916;-95
2023/04/25 09:46:00;;;;;;;;;;;;;;;;;;6213613;23;19920;-94
2023/04/25 09:48:25;;;;;;;;;;;;;;;;;;6181293;23;20250;-96
2023/04/25 09:53:27;;;;;;;;;;;;;;;;;;6206605;23;19916;-94
2023/04/25 09:55:59;;;;;;;;;;;;;;;;;;6180731;23;19927;-94
2023/04/25 09:58:25;;;;;;;;;;;;;;;;;;6180479;23;19915;-94
2023/04/25 10:00:51;;;;;;;;;;;;;;;;;;6179472;23;20253;-90
2023/04/25 10:03:17;;;;;;;;;;;;;;;;;;6182843;23;19938;-95
2023/04/25 10:05:43;;;;;;;;;;;;;;;;;;6183831;23;19916;-96
2023/04/25 10:08:11;;;;;;;;;;;;;;;;;;6212762;23;19920;-95
2023/04/25 10:10:38;;;;;;;;;;;;;;;;;;6181940;23;19959;-93
2023/04/25 10:13:05;;;;;;;;;;;;;;;;;;6184636;23;19951;-96
2023/04/25 10:46:50;;;;;;;;;;;;;;;;;;6206075;23;19928;-92
2023/04/25 10:49:25;;;;;;;;;;;;;;;;;;6162205;23;19924;-93
2023/04/25 10:51:52;;;;;;;;;;;;;;;;;;6167268;23;20007;-95
2023/04/25 10:54:19;;;;;;;;;;;;;;;;;;6143717;23;19916;-95
2023/04/25 10:56:45;;;;;;;;;;;;;;;;;;6145654;23;19924;-96
2023/04/25 10:59:11;;;;;;;;;;;;;;;;;;6146014;23;19921;-95
2023/04/25 11:01:37;;;;;;;;;;;;;;;;;;6145018;23;19932;-96
2023/04/25 11:04:03;;;;;;;;;;;;;;;;;;6151692;23;19921;-95
2023/04/25 11:06:29;;;;;;;;;;;;;;;;;;6158380;23;19908;-94
2023/04/25 11:24:30;;;;;;;;;;;;;;;;;;6167673;23;19921;-95
2023/04/25 11:26:56;;;;;;;;;;;;;;;;;;6141947;23;19945;-94
2023/04/25 11:29:22;;;;;;;;;;;;;;;;;;6149952;23;19912;-95
2023/04/25 11:31:49;;;;;;;;;;;;;;;;;;6178433;23;19912;-95
2023/04/25 11:34:17;;;;;;;;;;;;;;;;;;6169485;23;19920;-96
2023/04/25 11:36:44;;;;;;;;;;;;;;;;;;6150411;23;19931;-94
2023/04/25 11:39:28;;;;;;;;;;;;;;;;;;6172219;23;19928;-95
2023/04/25 11:42:01;;;;;;;;;;;;;;;;;;6151954;23;19920;-94
2023/04/25 11:44:27;;;;;;;;;;;;;;;;;;6142657;23;19927;-95
2023/04/25 11:46:54;;;;;;;;;;;;;;;;;;6142806;23;20323;-94
2023/04/25 11:49:28;;;;;;;;;;;;;;;;;;6167888;23;19927;-91
2023/04/25 11:51:58;;;;;;;;;;;;;;;;;;6140979;23;19920;-93
2023/04/25 11:54:41;;;;;;;;;;;;;;;;;;6141826;23;19951;-95
2023/04/25 11:57:07;;;;;;;;;;;;;;;;;;6140385;23;19917;-94
2023/04/25 11:59:33;;;;;;;;;;;;;;;;;;6145924;23;19924;-93
2023/04/25 12:02:06;;;;;;;;;;;;;;;;;;6145036;23;19927;-89
2023/04/25 12:04:33;;;;;;;;;;;;;;;;;;6147022;23;19983;-94
2023/04/25 12:07:01;;;;;;;;;;;;;;;;;;6174331;23;19948;-95
2023/04/25 12:09:27;;;;;;;;;;;;;;;;;;6148711;23;19925;-95
2023/04/25 12:27:28;;;;;;;;;;;;;;;;;;6195768;23;19920;-96
2023/04/25 12:29:57;;;;;;;;;;;;;;;;;;6174674;23;19927;-93
2023/04/25 12:32:24;;;;;;;;;;;;;;;;;;6155048;23;19939;-94
2023/04/25 12:34:50;;;;;;;;;;;;;;;;;;6147063;23;19928;-93
2023/04/25 12:42:44;;;;;;;;;;;;;;;;;;6202717;23;19920;-94
2023/04/25 12:50:20;;;;;;;;;;;;;;;;;;6197098;23;19926;-95
2023/04/25 12:52:46;;;;;;;;;;;;;;;;;;6156163;23;19982;-92
2023/04/25 12:55:21;;;;;;;;;;;;;;;;;;6139248;23;19928;-96
2023/04/25 12:58:00;;;;;;;;;;;;;;;;;;6221105;23;19919;-96
2023/04/25 13:00:26;;;;;;;;;;;;;;;;;;6176676;23;19920;-95
2023/04/25 13:02:52;;;;;;;;;;;;;;;;;;6174985;23;19916;-93
2023/04/25 13:05:18;;;;;;;;;;;;;;;;;;6172824;23;19916;-91
2023/04/25 13:07:45;;;;;;;;;;;;;;;;;;6197153;23;19927;-93
2023/04/25 13:10:11;;;;;;;;;;;;;;;;;;6173246;23;20331;-91
2023/04/25 13:12:37;;;;;;;;;;;;;;;;;;6172963;23;19923;-89
2023/04/25 13:15:03;;;;;;;;;;;;;;;;;;6176215;23;19916;-91
2023/04/25 13:17:31;;;;;;;;;;;;;;;;;;6178854;23;19950;-95
2023/04/25 13:19:57;;;;;;;;;;;;;;;;;;6178741;23;19916;-93
2023/04/25 13:25:00;;;;;;;;;;;;;;;;;;6207781;23;19923;-96
2023/04/25 13:27:27;;;;;;;;;;;;;;;;;;6185249;23;19920;-96
2023/04/25 13:29:56;;;;;;;;;;;;;;;;;;6157742;23;19916;-94
2023/04/25 13:32:43;;;;;;;;;;;;;;;;;;6210785;23;19920;-95
2023/04/25 13:40:21;;;;;;;;;;;;;;;;;;6201595;23;19924;-96
2023/04/25 13:42:47;;;;;;;;;;;;;;;;;;6152718;23;19999;-93
2023/04/25 13:45:13;;;;;;;;;;;;;;;;;;6153940;23;19940;-96
2023/04/25 13:47:51;;;;;;;;;;;;;;;;;;6181010;23;19943;-95
2023/04/25 13:55:29;;;;;;;;;;;;;;;;;;6211068;23;19904;-96
2023/04/25 13:57:58;;;;;;;;;;;;;;;;;;6151548;23;19975;-94
2023/04/25 14:00:27;;;;;;;;;;;;;;;;;;6161963;23;19925;-94
2023/04/25 14:02:53;;;;;;;;;;;;;;;;;;6151193;23;19904;-93
2023/04/25 14:10:45;;;;;;;;;;;;;;;;;;6209118;23;20004;-96
2023/04/25 14:13:12;;;;;;;;;;;;;;;;;;6176560;23;19951;-94
2023/04/25 14:15:41;;;;;;;;;;;;;;;;;;6166467;23;19927;-96
2023/04/25 14:18:07;;;;;;;;;;;;;;;;;;6182016;23;19971;-92
2023/04/25 14:23:11;;;;;;;;;;;;;;;;;;6205600;23;19904;-95
2023/04/25 14:25:38;;;;;;;;;;;;;;;;;;6180701;23;19908;-95
2023/04/25 14:28:04;;;;;;;;;;;;;;;;;;6181022;23;19920;-95
2023/04/25 14:30:30;;;;;;;;;;;;;;;;;;6182822;23;19991;-96
2023/04/25 14:32:56;;;;;;;;;;;;;;;;;;6185020;23;19938;-95
2023/04/25 14:35:22;;;;;;;;;;;;;;;;;;6166579;23;19940;-96
2023/04/25 14:40:24;;;;;;;;;;;;;;;;;;6174888;23;19968;-96
2023/04/25 14:42:56;;;;;;;;;;;;;;;;;;6188222;23;19908;-96
2023/04/25 14:45:22;;;;;;;;;;;;;;;;;;6163869;23;19920;-91
2023/04/25 14:47:48;;;;;;;;;;;;;;;;;;6152583;23;19923;-96
2023/04/25 14:50:20;;;;;;;;;;;;;;;;;;6209697;23;19908;-96
2023/04/25 14:52:46;;;;;;;;;;;;;;;;;;6157244;23;19936;-95
2023/04/25 14:55:12;;;;;;;;;;;;;;;;;;6154024;23;19908;-95
2023/04/25 14:57:39;;;;;;;;;;;;;;;;;;6157473;23;19920;-96
2023/04/25 15:00:07;;;;;;;;;;;;;;;;;;6159168;23;19905;-94
2023/04/25 15:02:34;;;;;;;;;;;;;;;;;;6143375;23;19904;-96
2023/04/25 15:05:03;;;;;;;;;;;;;;;;;;6158557;23;19953;-95
2023/04/25 15:07:34;;;;;;;;;;;;;;;;;;6155278;23;19917;-93
2023/04/25 15:10:15;;;;;;;;;;;;;;;;;;6156526;23;19916;-91
2023/04/25 15:12:41;;;;;;;;;;;;;;;;;;6152191;23;19916;-93
2023/04/25 15:17:43;;;;;;;;;;;;;;;;;;6201607;23;19920;-95
2023/04/25 15:20:22;;;;;;;;;;;;;;;;;;6156035;23;19927;-93
2023/04/25 15:22:48;;;;;;;;;;;;;;;;;;6155329;23;19916;-95
2023/04/25 15:25:17;;;;;;;;;;;;;;;;;;6151915;23;19935;-95
2023/04/25 15:27:43;;;;;;;;;;;;;;;;;;6149702;23;19968;-96
2023/04/25 15:30:15;;;;;;;;;;;;;;;;;;6150161;23;20338;-96
2023/04/25 15:32:40;;;;;;;;;;;;;;;;;;6154054;23;19943;-94
2023/04/25 15:35:07;;;;;;;;;;;;;;;;;;6157634;23;19920;-94
2023/04/25 15:37:33;;;;;;;;;;;;;;;;;;6155011;23;19944;-95
2023/04/25 15:40:00;;;;;;;;;;;;;;;;;;6154421;23;19926;-93
2023/04/25 15:42:26;;;;;;;;;;;;;;;;;;6157621;23;19924;-92
2023/04/25 15:45:16;;;;;;;;;;;;;;;;;;5170766;27;19934;-93
2023/04/25 15:47:42;;;;;;;;;;;;;;;;;;5117596;27;19920;-90
2023/04/25 15:50:13;;;;;;;;;;;;;;;;;;5161468;27;19941;-96
2023/04/25 15:52:40;;;;;;;;;;;;;;;;;;5117287;27;19987;-96
2023/04/25 15:55:07;;;;;;;;;;;;;;;;;;5136660;28;19931;-95
2023/04/25 15:57:33;;;;;;;;;;;;;;;;;;5132242;28;19923;-91
2023/04/25 15:59:59;;;;;;;;;;;;;;;;;;5457315;22;19923;-90
2023/04/25 16:02:26;;;;;;;;;;;;;;;;;;5592588;22;19926;-92
2023/04/25 16:04:52;;;;;;;;;;;;;;;;;;5053905;28;19932;-96
2023/04/25 16:07:18;;;;;;;;;;;;;;;;;;5039490;28;19989;-96
2023/04/25 16:09:45;;;;;;;;;;;;;;;;;;5038571;28;19909;-91
2023/04/25 16:12:11;;;;;;;;;;;;;;;;;;5276694;22;19944;-95
2023/04/25 16:53:32;;;;;;;;;;;;;;;;;;4989767;28;19926;-95
2023/04/25 16:55:58;;;;;;;;;;;;;;;;;;4945462;28;19933;-96
2023/04/25 16:58:26;;;;;;;;;;;;;;;;;;4966679;28;19926;-95
2023/04/25 17:01:04;;;;;;;;;;;;;;;;;;4949175;28;19926;-96
2023/04/25 17:03:30;;;;;;;;;;;;;;;;;;4952506;28;19989;-96
2023/04/25 17:06:00;;;;;;;;;;;;;;;;;;4971402;28;19942;-96
2023/04/25 17:11:02;;;;;;;;;;;;;;;;;;5755428;23;19910;-96
2023/04/25 17:13:28;;;;;;;;;;;;;;;;;;4986748;28;19926;-95
2023/04/25 17:15:54;;;;;;;;;;;;;;;;;;4989932;28;19941;-96
2023/04/25 17:18:20;;;;;;;;;;;;;;;;;;4990785;28;19928;-95
2023/04/25 17:20:47;;;;;;;;;;;;;;;;;;5006817;28;19926;-92
2023/04/25 17:23:13;;;;;;;;;;;;;;;;;;4994239;28;19926;-96
2023/04/25 17:25:39;;;;;;;;;;;;;;;;;;5001412;28;19920;-90
2023/04/25 17:28:08;;;;;;;;;;;;;;;;;;5008040;22;19997;-96
2023/04/25 17:30:35;;;;;;;;;;;;;;;;;;5007619;28;19906;-96
2023/04/25 17:33:02;;;;;;;;;;;;;;;;;;4991853;28;19922;-96
2023/04/25 17:35:28;;;;;;;;;;;;;;;;;;4984101;28;19969;-93
2023/04/25 17:37:54;;;;;;;;;;;;;;;;;;4983758;28;19922;-96
2023/04/25 17:40:20;;;;;;;;;;;;;;;;;;4998377;28;19976;-93
2023/04/25 17:42:49;;;;;;;;;;;;;;;;;;4991475;28;19917;-91
2023/04/25 17:45:16;;;;;;;;;;;;;;;;;;4996257;28;19973;-95
2023/04/25 17:47:42;;;;;;;;;;;;;;;;;;5037057;23;19910;-96
2023/04/25 17:50:09;;;;;;;;;;;;;;;;;;5008823;28;19937;-94
2023/04/25 17:52:37;;;;;;;;;;;;;;;;;;5000966;28;19958;-93
2023/04/25 17:55:06;;;;;;;;;;;;;;;;;;4997746;28;19953;-94
2023/04/25 17:57:32;;;;;;;;;;;;;;;;;;5067875;22;19934;-94
2023/04/25 17:59:58;;;;;;;;;;;;;;;;;;4993090;28;19972;-94
2023/04/25 18:02:24;;;;;;;;;;;;;;;;;;4993303;28;19926;-94
2023/04/25 18:04:51;;;;;;;;;;;;;;;;;;5000658;28;19989;-96
2023/04/25 18:07:18;;;;;;;;;;;;;;;;;;4997140;28;19914;-96
2023/04/25 18:09:45;;;;;;;;;;;;;;;;;;5005236;28;19926;-95
2023/04/25 18:12:14;;;;;;;;;;;;;;;;;;4999708;28;19964;-96
2023/04/25 18:14:40;;;;;;;;;;;;;;;;;;4991052;28;19910;-96
2023/04/25 18:17:07;;;;;;;;;;;;;;;;;;4987736;28;19949;-94
2023/04/25 18:19:34;;;;;;;;;;;;;;;;;;4995153;28;19922;-91
2023/04/25 18:22:00;;;;;;;;;;;;;;;;;;4991119;28;19926;-96
2023/04/25 18:24:26;;;;;;;;;;;;;;;;;;4989612;28;19926;-96
2023/04/25 18:26:53;;;;;;;;;;;;;;;;;;4992024;28;19949;-95
2023/04/25 18:29:19;;;;;;;;;;;;;;;;;;4989953;28;19949;-96
2023/04/25 18:31:45;;;;;;;;;;;;;;;;;;4991656;28;19985;-96
2023/04/25 18:34:11;;;;;;;;;;;;;;;;;;5005588;28;20028;-95
2023/04/25 18:36:38;;;;;;;;;;;;;;;;;;5013888;22;19940;-96
2023/04/25 18:39:08;;;;;;;;;;;;;;;;;;4989491;28;19926;-96
2023/04/25 18:44:10;;;;;;;;;;;;;;;;;;5454043;22;19957;-96
2023/04/25 18:46:36;;;;;;;;;;;;;;;;;;5143075;22;19926;-96
2023/04/25 18:49:02;;;;;;;;;;;;;;;;;;4988796;28;19930;-91
2023/04/25 18:51:32;;;;;;;;;;;;;;;;;;5004444;28;19930;-93
2023/04/25 19:40:38;;;;;;;;;;;;;;;;;;5033449;23;19926;-94
2023/04/25 19:43:08;;;;;;;;;;;;;;;;;;5002668;28;19909;-96
2023/04/25 19:48:20;;;;;;;;;;;;;;;;;;4979204;28;19910;-96
2023/04/25 19:50:45;;;;;;;;;;;;;;;;;;4966133;28;19910;-96
2023/04/25 19:53:12;;;;;;;;;;;;;;;;;;4961790;28;19923;-93
2023/04/25 19:55:37;;;;;;;;;;;;;;;;;;4964421;28;20033;-95
2023/04/25 19:58:05;;;;;;;;;;;;;;;;;;4967927;28;19926;-96
2023/04/25 20:00:31;;;;;;;;;;;;;;;;;;4967712;28;19932;-94
2023/04/25 20:02:57;;;;;;;;;;;;;;;;;;4959850;28;20005;-96
2023/04/25 20:05:26;;;;;;;;;;;;;;;;;;5001407;23;19925;-96
2023/04/25 20:07:52;;;;;;;;;;;;;;;;;;4994706;28;19976;-96
2023/04/25 20:10:22;;;;;;;;;;;;;;;;;;5006306;28;19926;-96
2023/04/25 20:12:48;;;;;;;;;;;;;;;;;;4989588;28;19930;-96
2023/04/25 20:15:14;;;;;;;;;;;;;;;;;;4997530;28;19926;-93
2023/04/25 20:17:41;;;;;;;;;;;;;;;;;;4991738;28;19930;-96
2023/04/25 20:20:07;;;;;;;;;;;;;;;;;;5000550;28;19926;-95
2023/04/25 20:22:37;;;;;;;;;;;;;;;;;;4988819;28;19922;-96
2023/04/25 20:25:03;;;;;;;;;;;;;;;;;;4995060;28;19926;-96